Time;durP1;ratioP1;P1;durP2;ratioP2;P2;SDS_P1;SDS_P2;PMS_P1;PMS_P2;Temp;Humidity;BMP_temperature;BMP_pressure;BME280_temperature;BME280_humidity;BME280_pressure;Samples;Min_cycle;Max_cycle;Signal;HPM_P1;HPM_P2
2024/03/12 00:00:16;;;;;;;4.72;3.03;;;;;;;10.73;56.61;96676.28;4976320;28;20039;-85
2024/03/12 00:02:44;;;;;;;5.55;3.30;;;;;;;10.59;57.72;96675.19;4996469;28;20482;-83
2024/03/12 00:05:19;;;;;;;4.80;3.05;;;;;;;10.63;57.31;96668.47;4998247;28;20034;-86
2024/03/12 00:07:45;;;;;;;;;;;;;;;10.84;57.20;96682.28;5001510;28;20053;-84
2024/03/12 00:10:19;;;;;;;4.43;2.97;;;;;;;10.79;57.25;96685.66;4988624;28;19914;-82
2024/03/12 00:12:49;;;;;;;4.40;2.90;;;;;;;10.85;56.82;96689.84;4983741;28;20033;-78
2024/03/12 00:15:20;;;;;;;4.40;3.10;;;;;;;10.80;57.31;96689.06;4975215;28;20029;-78
2024/03/12 00:17:46;;;;;;;4.57;3.25;;;;;;;10.77;56.62;96686.97;4999945;28;20722;-79
2024/03/12 00:20:17;;;;;;;4.28;2.90;;;;;;;10.75;56.55;96692.44;4990064;28;20033;-79
2024/03/12 00:22:47;;;;;;;4.35;3.25;;;;;;;10.85;56.51;96692.47;4987913;28;20053;-83
2024/03/12 00:25:16;;;;;;;5.68;3.65;;;;;;;10.85;57.08;96696.91;4984161;28;20018;-83
2024/03/12 00:27:43;;;;;;;4.68;2.60;;;;;;;10.92;56.66;96697.44;4976008;28;20057;-83
2024/03/12 00:30:09;;;;;;;4.35;3.28;;;;;;;10.87;56.70;96690.38;4986288;28;20030;-83
2024/03/12 00:32:36;;;;;;;4.55;3.33;;;;;;;11.00;56.66;96704.75;4983425;28;20029;-83
2024/03/12 00:35:03;;;;;;;5.00;3.13;;;;;;;10.85;56.94;96699.50;4996597;28;20131;-83
2024/03/12 00:37:29;;;;;;;5.50;3.25;;;;;;;10.94;56.59;96707.59;4998388;28;20030;-83
2024/03/12 00:39:55;;;;;;;5.78;2.90;;;;;;;11.04;56.66;96711.00;4987528;28;20041;-84
2024/03/12 00:42:22;;;;;;;5.22;3.30;;;;;;;11.02;56.67;96710.47;4982232;28;20060;-84
2024/03/12 00:44:48;;;;;;;4.05;3.03;;;;;;;11.14;56.81;96722.44;4986429;28;20055;-84
2024/03/12 00:47:14;;;;;;;5.15;3.63;;;;;;;11.14;56.88;96717.25;4993466;28;20043;-84
2024/03/12 00:49:40;;;;;;;5.82;3.35;;;;;;;11.27;56.20;96715.97;4979111;28;20056;-84
2024/03/12 00:52:05;;;;;;;5.13;3.53;;;;;;;11.26;56.62;96712.59;5001949;28;20022;-83
2024/03/12 00:54:35;;;;;;;4.95;3.25;;;;;;;11.24;56.44;96714.66;5001360;28;20030;-84
2024/03/12 00:57:02;;;;;;;5.30;3.33;;;;;;;11.36;56.30;96714.41;4971670;28;20235;-83
2024/03/12 00:59:29;;;;;;;5.07;3.60;;;;;;;11.39;55.84;96722.47;4995486;28;20041;-83
2024/03/12 01:01:54;;;;;;;4.85;3.33;;;;;;;11.38;55.97;96723.53;5006854;28;20478;-83
2024/03/12 01:04:21;;;;;;;6.93;3.10;;;;;;;11.33;56.08;96720.94;4987230;28;20044;-84
2024/03/12 01:06:49;;;;;;;5.05;3.38;;;;;;;11.32;55.79;96715.97;4986175;28;20040;-84
2024/03/12 01:09:17;;;;;;;4.03;3.03;;;;;;;11.22;56.12;96717.53;4973474;28;20475;-85
2024/03/12 01:11:43;;;;;;;3.70;3.05;;;;;;;11.39;56.17;96726.91;4968962;28;20033;-84
2024/03/12 01:14:08;;;;;;;4.43;3.25;;;;;;;11.44;55.90;96717.25;4965628;28;20486;-84
2024/03/12 01:16:33;;;;;;;5.88;3.25;;;;;;;11.42;55.82;96716.75;4979722;28;20037;-84
2024/03/12 01:18:59;;;;;;;3.60;2.88;;;;;;;11.36;55.74;96717.00;4971598;28;20025;-84
2024/03/12 01:21:24;;;;;;;4.80;3.22;;;;;;;11.37;55.64;96714.13;5001409;28;20056;-83
2024/03/12 01:23:50;;;;;;;5.60;2.90;;;;;;;11.39;55.21;96712.03;4984261;28;20075;-84
2024/03/12 01:26:15;;;;;;;3.63;2.90;;;;;;;11.37;55.44;96706.31;4965189;28;20411;-84
2024/03/12 01:28:41;;;;;;;5.88;3.17;;;;;;;11.28;55.76;96700.06;4999048;28;20053;-84
2024/03/12 01:31:07;;;;;;;5.60;2.80;;;;;;;11.38;55.79;96712.34;4995221;28;20167;-84
2024/03/12 01:33:32;;;;;;;5.07;2.83;;;;;;;11.32;55.27;96710.75;4996476;28;20049;-84
2024/03/12 01:36:05;;;;;;;4.07;3.25;;;;;;;11.23;55.73;96713.09;5013392;28;20044;-84
2024/03/12 01:38:34;;;;;;;4.07;3.55;;;;;;;11.35;56.02;96718.84;5002350;28;20039;-85
2024/03/12 01:41:01;;;;;;;4.18;2.80;;;;;;;11.27;55.59;96711.53;4978971;28;20084;-83
2024/03/12 01:43:28;;;;;;;4.32;2.80;;;;;;;11.15;55.88;96708.41;4984309;28;20036;-83
2024/03/12 01:45:53;;;;;;;4.65;3.25;;;;;;;11.31;55.47;96715.19;4996059;28;20034;-84
2024/03/12 01:48:22;;;;;;;7.53;3.35;;;;;;;11.25;55.82;96718.81;4974836;28;20030;-84
2024/03/12 01:50:48;;;;;;;4.25;2.78;;;;;;;11.13;56.58;96718.31;4972579;28;20447;-84
2024/03/12 01:53:14;;;;;;;4.88;3.40;;;;;;;11.16;56.15;96717.78;4987371;28;20140;-84
2024/03/12 01:55:42;;;;;;;4.05;3.25;;;;;;;11.06;56.52;96708.91;4975348;28;20488;-85
2024/03/12 01:58:07;;;;;;;4.93;3.20;;;;;;;11.11;57.00;96715.94;4975541;28;20032;-85
2024/03/12 02:00:33;;;;;;;5.32;4.03;;;;;;;11.06;56.97;96716.72;4973186;28;20037;-84
2024/03/12 02:02:59;;;;;;;4.10;3.33;;;;;;;11.11;57.15;96723.00;4988842;28;20065;-83
2024/03/12 02:05:26;;;;;;;5.20;3.97;;;;;;;11.07;57.60;96725.34;4982112;28;20029;-84
2024/03/12 02:07:53;;;;;;;4.53;3.38;;;;;;;11.12;58.21;96724.53;4960452;28;20429;-84
2024/03/12 02:10:19;;;;;;;7.13;3.88;;;;;;;11.15;58.05;96730.00;4965431;28;20061;-84
2024/03/12 02:12:45;;;;;;;4.60;3.75;;;;;;;11.17;57.59;96730.56;4984725;28;20084;-85
2024/03/12 02:15:12;;;;;;;5.40;3.72;;;;;;;11.13;57.79;96733.94;4976019;28;20410;-84
2024/03/12 02:17:39;;;;;;;7.57;4.47;;;;;;;11.10;58.44;96739.66;4998899;28;20120;-84
2024/03/12 02:20:08;;;;;;;6.00;4.72;;;;;;;11.18;57.56;96728.72;4994127;28;20335;-84
2024/03/12 02:22:35;;;;;;;5.78;4.20;;;;;;;11.17;57.94;96732.38;4993565;28;20112;-85
2024/03/12 02:25:01;;;;;;;6.60;4.28;;;;;;;11.09;58.37;96731.06;4975382;28;20030;-84
2024/03/12 02:27:26;;;;;;;8.15;4.40;;;;;;;11.12;58.35;96725.34;4975023;28;20628;-83
2024/03/12 02:29:52;;;;;;;7.25;4.22;;;;;;;11.21;57.89;96730.81;4983430;28;20552;-84
2024/03/12 02:32:17;;;;;;;7.18;5.20;;;;;;;11.20;58.39;96731.84;4980090;28;20396;-78
2024/03/12 02:34:43;;;;;;;7.78;4.63;;;;;;;11.25;58.23;96737.06;4982051;28;20045;-79
2024/03/12 02:37:09;;;;;;;7.20;5.13;;;;;;;11.21;58.21;96738.63;4986365;28;20079;-78
2024/03/12 02:39:35;;;;;;;6.18;4.60;;;;;;;11.18;58.80;96732.09;5010218;28;20059;-78
2024/03/12 02:42:00;;;;;;;6.75;4.45;;;;;;;11.11;58.92;96738.63;4970222;28;20501;-84
2024/03/12 02:44:26;;;;;;;8.45;5.60;;;;;;;11.29;58.84;96740.72;4971383;28;20029;-84
2024/03/12 02:46:54;;;;;;;7.55;4.82;;;;;;;11.23;58.72;96742.53;5001469;28;20476;-85
2024/03/12 02:49:20;;;;;;;7.95;5.47;;;;;;;11.09;59.59;96743.28;4973211;28;20430;-84
2024/03/12 02:51:46;;;;;;;7.88;5.38;;;;;;;11.14;59.56;96749.31;4970603;28;20038;-84
2024/03/12 02:54:12;;;;;;;8.38;5.03;;;;;;;11.22;58.83;96751.41;4976146;28;20049;-85
2024/03/12 02:56:37;;;;;;;7.50;5.43;;;;;;;11.24;58.72;96754.53;4966063;28;20189;-85
2024/03/12 02:59:03;;;;;;;8.05;5.18;;;;;;;11.29;58.78;96751.13;4983731;28;20112;-83
2024/03/12 03:01:28;;;;;;;7.85;5.18;;;;;;;11.25;59.30;96763.91;4979786;28;20032;-84
2024/03/12 03:03:54;;;;;;;6.30;5.05;;;;;;;11.32;59.54;96752.47;4986659;28;20512;-84
2024/03/12 03:06:20;;;;;;;7.10;5.53;;;;;;;11.28;59.33;96761.84;4973002;28;20765;-83
2024/03/12 03:08:45;;;;;;;7.95;5.25;;;;;;;11.33;59.39;96767.84;4981171;28;20115;-85
2024/03/12 03:11:11;;;;;;;6.65;5.22;;;;;;;11.27;59.02;96760.28;5001057;28;20022;-85
2024/03/12 03:13:36;;;;;;;7.25;5.53;;;;;;;11.33;59.76;96760.03;4976327;28;20534;-84
2024/03/12 03:16:01;;;;;;;9.40;6.00;;;;;;;11.31;59.41;96758.69;4967215;28;20033;-84
2024/03/12 03:18:28;;;;;;;8.50;5.50;;;;;;;11.35;59.36;96770.19;4993021;28;20738;-84
2024/03/12 03:20:53;;;;;;;10.02;5.40;;;;;;;11.19;59.58;96753.72;4997576;28;20478;-84
2024/03/12 03:23:19;;;;;;;8.52;6.15;;;;;;;11.28;59.64;96764.44;4991200;28;20087;-83
2024/03/12 03:25:44;;;;;;;8.63;5.30;;;;;;;11.33;59.93;96765.22;4994936;28;20104;-85
2024/03/12 03:28:10;;;;;;;8.75;6.25;;;;;;;11.38;59.79;96765.25;4984527;28;20037;-84
2024/03/12 03:30:35;;;;;;;9.85;6.00;;;;;;;11.39;59.11;96766.78;4990200;28;20096;-84
2024/03/12 03:33:01;;;;;;;8.48;5.95;;;;;;;11.44;58.89;96766.03;4980271;28;20034;-85
2024/03/12 03:35:29;;;;;;;10.73;6.55;;;;;;;11.48;59.09;96768.88;4983276;28;20482;-84
2024/03/12 03:37:54;;;;;;;8.82;6.57;;;;;;;11.41;59.30;96769.13;4968925;28;20037;-85
2024/03/12 03:40:23;;;;;;;10.65;6.72;;;;;;;11.47;59.58;96762.13;4966911;28;20033;-85
2024/03/12 03:42:51;;;;;;;9.68;5.97;;;;;;;11.43;59.46;96770.47;4991604;28;20045;-78
2024/03/12 03:45:16;;;;;;;9.13;6.32;;;;;;;11.37;59.90;96768.88;4991890;28;20041;-78
2024/03/12 03:47:41;;;;;;;8.85;6.47;;;;;;;11.38;59.81;96765.25;4993198;28;20037;-78
2024/03/12 03:50:07;;;;;;;9.23;6.28;;;;;;;11.46;59.49;96776.19;4986536;28;20036;-78
2024/03/12 03:52:33;;;;;;;8.02;6.00;;;;;;;11.46;59.15;96776.19;4977182;28;20029;-84
2024/03/12 03:54:58;;;;;;;9.95;6.50;;;;;;;11.48;59.67;96779.31;4981552;28;20038;-83
2024/03/12 03:57:24;;;;;;;8.13;6.15;;;;;;;11.55;58.67;96785.84;4967703;28;20034;-83
2024/03/12 03:59:52;;;;;;;9.30;6.50;;;;;;;11.50;59.15;96785.03;4975714;28;20477;-85
2024/03/12 04:02:18;;;;;;;10.88;6.53;;;;;;;11.48;59.42;96784.53;4983796;28;20036;-84
2024/03/12 04:04:44;;;;;;;8.80;6.07;;;;;;;11.44;59.59;96784.25;4972248;28;20029;-83
2024/03/12 04:07:09;;;;;;;8.90;5.68;;;;;;;11.44;59.49;96777.22;4963409;28;20033;-83
2024/03/12 04:09:34;;;;;;;8.90;6.88;;;;;;;11.49;60.00;96797.31;4979533;28;20034;-85
2024/03/12 04:12:00;;;;;;;9.65;6.70;;;;;;;11.46;59.61;96797.03;4975874;28;20030;-83
2024/03/12 04:14:26;;;;;;;10.27;6.03;;;;;;;11.43;59.43;96798.38;4985183;28;20369;-83
2024/03/12 04:16:51;;;;;;;10.10;6.30;;;;;;;11.52;59.87;96809.06;4983420;28;20120;-84
2024/03/12 04:19:19;;;;;;;10.88;6.28;;;;;;;11.42;60.04;96807.97;4981210;28;20498;-85
2024/03/12 04:21:44;;;;;;;9.65;6.68;;;;;;;11.38;60.13;96817.38;5002205;28;20048;-84
2024/03/12 04:24:13;;;;;;;8.90;5.97;;;;;;;11.42;59.94;96818.41;5002989;28;20033;-84
2024/03/12 04:26:39;;;;;;;8.68;6.63;;;;;;;11.48;59.96;96826.25;4991632;28;20034;-85
2024/03/12 04:29:04;;;;;;;10.77;7.03;;;;;;;11.42;59.53;96807.22;4973274;28;20052;-85
2024/03/12 04:31:31;;;;;;;10.55;6.53;;;;;;;11.50;60.42;96838.00;4981521;28;20103;-84
2024/03/12 04:33:57;;;;;;;9.38;5.68;;;;;;;11.48;59.57;96836.66;4994582;28;20583;-85
2024/03/12 04:36:22;;;;;;;10.95;6.70;;;;;;;11.43;60.09;96837.47;4984642;28;20061;-83
2024/03/12 04:38:49;;;;;;;8.88;6.55;;;;;;;11.51;59.93;96836.94;4982232;28;20034;-85
2024/03/12 04:41:20;;;;;;;10.82;6.60;;;;;;;11.56;59.62;96833.56;4996590;28;20756;-84
2024/03/12 04:43:47;;;;;;;9.55;6.70;;;;;;;11.50;59.17;96826.75;4997841;28;20041;-85
2024/03/12 04:46:12;;;;;;;9.52;6.22;;;;;;;11.52;59.81;96833.31;4991200;28;20068;-85
2024/03/12 04:48:38;;;;;;;10.95;7.10;;;;;;;11.52;59.49;96835.13;4995074;28;20442;-84
2024/03/12 04:51:03;;;;;;;10.55;6.53;;;;;;;11.58;60.17;96847.13;4992311;28;20030;-83
2024/03/12 04:53:30;;;;;;;10.65;7.03;;;;;;;11.62;59.98;96845.56;5004456;28;20026;-84
2024/03/12 04:55:57;;;;;;;11.80;7.63;;;;;;;11.51;59.87;96843.97;4957942;28;20041;-82
2024/03/12 04:58:23;;;;;;;11.25;6.53;;;;;;;11.50;60.28;96845.00;5003272;28;20026;-84
2024/03/12 05:00:49;;;;;;;10.38;6.68;;;;;;;11.53;59.91;96854.94;4978336;28;20036;-84
2024/03/12 05:03:14;;;;;;;11.43;6.82;;;;;;;11.48;60.52;96860.13;4996950;28;20549;-85
2024/03/12 05:05:40;;;;;;;10.48;6.80;;;;;;;11.54;60.47;96859.13;4980907;28;20036;-85
2024/03/12 05:08:06;;;;;;;10.68;6.93;;;;;;;11.57;60.19;96867.19;4976069;28;20025;-84
2024/03/12 05:10:32;;;;;;;9.55;6.65;;;;;;;11.44;60.29;96865.84;4992636;28;20040;-84
2024/03/12 05:12:57;;;;;;;10.95;7.20;;;;;;;11.49;60.52;96869.53;4967321;28;20486;-84
2024/03/12 05:15:22;;;;;;;12.85;7.30;;;;;;;11.41;61.29;96873.41;4978040;28;20025;-83
2024/03/12 05:17:48;;;;;;;11.70;6.82;;;;;;;11.51;60.90;96877.88;4977733;28;20459;-84
2024/03/12 05:20:17;;;;;;;12.05;7.28;;;;;;;11.46;60.60;96870.03;4995196;28;20057;-85
2024/03/12 05:22:43;;;;;;;13.98;7.72;;;;;;;11.56;60.90;96880.50;5001513;28;20026;-84
2024/03/12 05:25:19;;;;;;;11.18;7.18;;;;;;;11.54;61.17;96887.78;5022376;28;20042;-84
2024/03/12 05:27:45;;;;;;;12.27;7.45;;;;;;;11.50;61.21;96884.13;4989538;28;20458;-84
2024/03/12 05:30:14;;;;;;;10.70;7.32;;;;;;;11.55;60.82;96890.16;4984656;28;20645;-84
2024/03/12 05:32:43;;;;;;;11.02;7.03;;;;;;;11.31;61.62;96894.22;4989612;28;20049;-84
2024/03/12 05:35:17;;;;;;;12.10;7.18;;;;;;;11.41;60.78;96895.06;4971140;28;20041;-84
2024/03/12 05:38:01;;;;;;;11.45;7.50;;;;;;;11.59;60.44;96901.63;4991375;28;20033;-83
2024/03/12 05:40:42;;;;;;;11.53;6.80;;;;;;;11.56;61.17;96896.13;4998327;28;20144;-84
2024/03/12 05:48:38;;;;;;;13.05;7.80;;;;;;;11.61;60.71;96906.59;4999466;28;20069;-84
2024/03/12 05:51:03;;;;;;;11.60;7.50;;;;;;;11.64;61.48;96907.91;5006884;28;20120;-85
2024/03/12 05:53:29;;;;;;;13.48;8.18;;;;;;;11.69;61.40;96918.34;4975211;28;20120;-83
2024/03/12 05:55:54;;;;;;;14.18;8.23;;;;;;;11.53;61.22;96915.69;4965891;28;20543;-84
2024/03/12 05:58:21;;;;;;;13.00;7.65;;;;;;;11.56;61.14;96917.00;4997883;28;20036;-83
2024/03/12 06:00:48;;;;;;;14.30;8.23;;;;;;;11.53;61.37;96917.50;4974609;28;20049;-84
2024/03/12 06:03:14;;;;;;;11.55;6.97;;;;;;;11.39;61.63;96922.41;5010081;28;20068;-83
2024/03/12 06:05:41;;;;;;;11.43;7.13;;;;;;;11.48;62.42;96923.50;4969738;28;20033;-78
2024/03/12 06:08:06;;;;;;;13.35;8.18;;;;;;;11.52;61.60;96926.38;4973492;28;20385;-79
2024/03/12 06:10:32;;;;;;;13.63;8.13;;;;;;;11.50;61.84;96928.44;4968388;28;20040;-79
2024/03/12 06:12:57;;;;;;;13.25;7.78;;;;;;;11.50;61.69;96938.88;4995464;28;20068;-78
2024/03/12 06:15:22;;;;;;;12.13;7.78;;;;;;;11.55;62.07;96938.88;4992465;28;20091;-78
2024/03/12 06:17:48;;;;;;;15.43;9.23;;;;;;;11.54;62.33;96947.75;4990800;28;20072;-78
2024/03/12 06:20:13;;;;;;;12.38;7.97;;;;;;;11.45;62.48;96931.84;4993297;28;20079;-78
2024/03/12 06:22:39;;;;;;;14.30;8.32;;;;;;;11.51;61.81;96945.66;5013500;28;20042;-78
2024/03/12 06:25:05;;;;;;;15.13;8.63;;;;;;;11.42;62.24;96938.31;4981238;28;20044;-79
2024/03/12 06:27:32;;;;;;;13.25;8.75;;;;;;;11.45;62.50;96947.47;4992347;28;20449;-79
2024/03/12 06:29:57;;;;;;;16.85;9.13;;;;;;;11.47;62.60;96944.63;4974344;28;20049;-78
2024/03/12 06:32:25;;;;;;;15.90;9.63;;;;;;;11.53;62.21;96951.41;4993477;28;20335;-79
2024/03/12 06:34:50;;;;;;;18.80;9.82;;;;;;;11.56;61.47;96953.50;4993633;28;20495;-84
2024/03/12 06:37:15;;;;;;;19.13;10.23;;;;;;;11.70;61.59;96948.59;4975799;28;20040;-84
2024/03/12 06:39:41;;;;;;;16.65;10.25;;;;;;;11.59;61.74;96960.81;4994892;28;20294;-84
2024/03/12 06:42:07;;;;;;;17.92;10.10;;;;;;;11.48;61.82;96956.59;4990248;28;20036;-84
2024/03/12 06:44:40;;;;;;;18.42;10.20;;;;;;;11.56;62.01;96956.88;5024482;28;20041;-84
2024/03/12 06:47:07;;;;;;;19.15;10.38;;;;;;;11.51;62.15;96964.69;4964116;28;20498;-83
2024/03/12 06:49:33;;;;;;;19.58;12.02;;;;;;;11.62;61.83;96966.31;4972469;28;20100;-84
2024/03/12 06:51:59;;;;;;;18.55;10.25;;;;;;;11.57;61.96;96966.28;4997366;28;20573;-84
2024/03/12 06:54:26;;;;;;;18.45;11.07;;;;;;;11.62;62.25;96974.13;5001358;28;20116;-84
2024/03/12 06:56:53;;;;;;;18.52;10.63;;;;;;;11.59;62.37;96976.47;4995582;28;20057;-84
2024/03/12 06:59:21;;;;;;;20.42;11.65;;;;;;;11.58;62.41;96974.88;4997204;28;20029;-83
2024/03/12 07:01:53;;;;;;;19.50;11.63;;;;;;;11.64;61.69;96986.13;4974734;28;20041;-84
2024/03/12 07:04:23;;;;;;;19.52;10.40;;;;;;;11.66;62.14;96986.66;4993147;28;20478;-84
2024/03/12 07:06:50;;;;;;;21.52;12.00;;;;;;;11.57;61.95;96987.16;4993093;28;20037;-85
2024/03/12 07:09:26;;;;;;;20.52;11.18;;;;;;;11.60;61.99;96986.66;4986605;28;20073;-85
2024/03/12 07:11:54;;;;;;;19.33;11.27;;;;;;;11.59;62.24;96995.50;4988510;28;20537;-84
2024/03/12 07:14:23;;;;;;;19.38;11.32;;;;;;;11.58;62.30;96991.34;5019607;28;20030;-83
2024/03/12 07:16:52;;;;;;;22.88;12.13;;;;;;;11.53;61.99;96996.53;4992084;28;20123;-84
2024/03/12 07:19:17;;;;;;;20.65;11.82;;;;;;;11.67;61.80;96996.84;4988430;28;20026;-84
2024/03/12 07:21:43;;;;;;;22.27;12.77;;;;;;;11.74;60.84;97002.59;4971169;28;20022;-85
2024/03/12 07:24:09;;;;;;;23.45;13.43;;;;;;;11.62;60.96;96999.44;5003976;28;20077;-84
2024/03/12 07:26:34;;;;;;;20.33;12.57;;;;;;;11.78;60.56;97003.66;4998697;28;20037;-84
2024/03/12 07:29:02;;;;;;;21.67;12.23;;;;;;;11.75;60.67;97009.38;4994237;28;20048;-83
2024/03/12 07:31:28;;;;;;;22.10;11.77;;;;;;;11.68;60.78;97008.81;5002437;28;20041;-84
2024/03/12 07:33:55;;;;;;;20.10;12.30;;;;;;;11.65;60.91;97011.94;4991244;28;20033;-84
2024/03/12 07:36:21;;;;;;;19.38;12.30;;;;;;;11.80;60.91;97016.44;4970699;28;20125;-84
2024/03/12 07:38:47;;;;;;;21.08;11.65;;;;;;;11.72;61.50;97014.31;4970279;28;20033;-84
2024/03/12 07:41:12;;;;;;;21.38;12.50;;;;;;;11.80;60.83;97030.25;4976589;28;20211;-84
2024/03/12 07:43:38;;;;;;;21.92;12.70;;;;;;;11.84;60.97;97035.78;4991882;28;20056;-79
2024/03/12 07:46:03;;;;;;;22.02;13.85;;;;;;;11.84;60.93;97027.94;4991400;28;20038;-80
2024/03/12 07:48:28;;;;;;;23.00;13.10;;;;;;;11.84;61.21;97034.97;5014063;28;20088;-79
2024/03/12 07:50:57;;;;;;;20.23;12.98;;;;;;;11.87;60.64;97026.63;4984852;28;20033;-80
2024/03/12 07:53:28;;;;;;;20.30;12.70;;;;;;;11.90;60.35;97033.97;4980753;28;20034;-80
2024/03/12 07:55:56;;;;;;;22.27;12.70;;;;;;;11.88;60.69;97036.03;4975132;28;20034;-84
2024/03/12 07:58:22;;;;;;;24.23;13.57;;;;;;;11.97;60.14;97042.34;4992274;28;20061;-83
2024/03/12 08:00:48;;;;;;;20.70;11.43;;;;;;;11.89;61.85;97040.19;4981763;28;20026;-84
2024/03/12 08:03:13;;;;;;;22.52;12.93;;;;;;;11.94;61.44;97042.84;4985730;28;20483;-81
2024/03/12 08:05:40;;;;;;;24.52;14.45;;;;;;;12.03;60.86;97053.59;5007644;28;20512;-78
2024/03/12 08:08:07;;;;;;;24.38;13.75;;;;;;;11.90;60.52;97052.22;4988468;28;20613;-79
2024/03/12 08:10:33;;;;;;;24.38;13.75;;;;;;;11.97;61.05;97056.19;4993132;28;20506;-78
2024/03/12 08:12:59;;;;;;;22.63;13.00;;;;;;;11.89;60.79;97051.44;5003107;28;20037;-83
2024/03/12 08:15:24;;;;;;;22.63;13.85;;;;;;;11.97;60.29;97064.00;4977431;28;20033;-78
2024/03/12 08:17:49;;;;;;;24.30;14.23;;;;;;;12.03;60.50;97067.44;4990794;28;20033;-79
2024/03/12 08:20:17;;;;;;;24.40;15.02;;;;;;;12.02;60.73;97057.25;5001257;28;20044;-80
2024/03/12 08:22:43;;;;;;;25.20;14.40;;;;;;;12.06;60.53;97053.06;4985373;28;20080;-79
2024/03/12 08:25:10;;;;;;;26.20;14.93;;;;;;;11.93;59.83;97055.13;4973343;28;20061;-85
2024/03/12 08:27:37;;;;;;;27.50;16.15;;;;;;;12.01;59.92;97061.66;4987186;28;20129;-85
2024/03/12 08:30:03;;;;;;;26.13;13.57;;;;;;;12.11;60.09;97069.53;4969890;28;20431;-84
2024/03/12 08:32:29;;;;;;;25.92;14.50;;;;;;;12.04;59.88;97058.56;4965701;28;20030;-84
2024/03/12 08:34:54;;;;;;;25.10;14.20;;;;;;;12.05;60.03;97065.34;4965153;28;20115;-83
2024/03/12 08:37:22;;;;;;;25.95;15.57;;;;;;;12.04;60.04;97065.59;4980008;28;20076;-83
2024/03/12 08:39:49;;;;;;;24.50;15.10;;;;;;;12.03;60.15;97071.84;5006163;28;20041;-83
2024/03/12 08:42:15;;;;;;;24.50;14.43;;;;;;;12.06;59.89;97077.34;4981889;28;20041;-84
2024/03/12 08:44:40;;;;;;;28.10;15.38;;;;;;;12.16;59.87;97076.59;5001810;28;20033;-84
2024/03/12 08:47:07;;;;;;;25.90;15.48;;;;;;;12.15;59.15;97075.81;5016354;28;20235;-84
2024/03/12 08:49:33;;;;;;;25.83;15.75;;;;;;;12.16;59.66;97076.59;4994217;28;20037;-84
2024/03/12 08:51:58;;;;;;;26.00;14.90;;;;;;;12.11;59.82;97079.19;4992870;28;20026;-83
2024/03/12 08:54:24;;;;;;;24.25;14.32;;;;;;;12.14;59.43;97081.28;4993637;28;20117;-84
2024/03/12 08:56:49;;;;;;;24.75;14.18;;;;;;;12.16;59.71;97087.81;5002680;28;20034;-84
2024/03/12 08:59:15;;;;;;;27.63;15.25;;;;;;;12.15;58.85;97088.88;4993565;28;20037;-83
2024/03/12 09:01:42;;;;;;;27.52;15.98;;;;;;;12.16;58.95;97087.81;5009156;28;20533;-84
2024/03/12 09:04:08;;;;;;;26.77;15.60;;;;;;;12.15;59.26;97088.09;5010393;28;20436;-79
2024/03/12 09:06:33;;;;;;;25.63;15.10;;;;;;;12.23;58.43;97097.25;4996095;28;20029;-79
2024/03/12 09:08:58;;;;;;;26.92;15.20;;;;;;;12.26;58.79;97091.50;5002933;28;20034;-79
2024/03/12 09:11:25;;;;;;;24.13;15.40;;;;;;;12.30;59.31;97100.41;4979737;28;20032;-79
2024/03/12 09:13:50;;;;;;;25.70;14.98;;;;;;;12.31;58.53;97097.53;4996309;28;20133;-79
2024/03/12 09:16:16;;;;;;;25.95;15.75;;;;;;;12.35;58.91;97103.00;4994030;28;20163;-79
2024/03/12 09:18:44;;;;;;;29.35;16.40;;;;;;;12.34;58.71;97098.84;4983673;28;20037;-79
2024/03/12 09:21:12;;;;;;;27.95;15.93;;;;;;;12.21;57.74;97094.09;4987702;28;20542;-79
2024/03/12 09:23:38;;;;;;;25.52;15.25;;;;;;;12.28;58.11;97107.69;4992832;28;20037;-79
2024/03/12 09:26:04;;;;;;;27.83;15.68;;;;;;;12.20;58.51;97102.97;4976238;28;20040;-79
2024/03/12 09:28:30;;;;;;;25.70;15.07;;;;;;;12.28;58.02;97105.09;4993308;28;20428;-80
2024/03/12 09:30:56;;;;;;;26.38;15.65;;;;;;;12.33;58.25;97111.09;4982167;28;20025;-79
2024/03/12 09:33:21;;;;;;;26.40;15.73;;;;;;;12.36;58.09;97112.44;4986924;28;20037;-79
2024/03/12 09:35:48;;;;;;;25.65;14.32;;;;;;;12.33;58.82;97118.16;4992552;28;20101;-79
2024/03/12 09:38:14;;;;;;;28.63;14.98;;;;;;;12.30;58.53;97108.22;5004812;28;20040;-79
2024/03/12 09:40:42;;;;;;;24.38;15.07;;;;;;;12.36;58.73;97128.88;4976977;28;20038;-79
2024/03/12 09:43:10;;;;;;;24.63;14.48;;;;;;;12.43;57.76;97126.03;4960311;28;20048;-79
2024/03/12 09:45:36;;;;;;;24.40;14.13;;;;;;;12.39;58.01;97134.63;4984955;28;20045;-79
2024/03/12 09:48:01;;;;;;;22.23;13.77;;;;;;;12.39;57.80;97132.81;4984869;28;20037;-79
2024/03/12 09:50:29;;;;;;;23.10;13.40;;;;;;;12.43;57.99;97138.31;4996136;28;20405;-79
2024/03/12 09:52:54;;;;;;;22.95;13.63;;;;;;;12.31;57.65;97133.31;4980607;28;20062;-80
2024/03/12 09:55:22;;;;;;;23.15;13.32;;;;;;;12.33;58.60;97139.03;4977741;28;20493;-81
2024/03/12 09:57:47;;;;;;;23.63;13.90;;;;;;;12.27;58.58;97142.66;5006309;28;20212;-79
2024/03/12 10:00:19;;;;;;;22.92;13.35;;;;;;;12.39;59.06;97142.44;4978571;28;20095;-79
2024/03/12 10:02:50;;;;;;;23.08;13.40;;;;;;;12.35;58.47;97145.59;5004368;28;20069;-78
2024/03/12 10:05:23;;;;;;;22.33;13.43;;;;;;;12.26;58.81;97146.34;4993780;28;20037;-78
2024/03/12 10:08:14;;;;;;;25.50;14.40;;;;;;;12.25;58.86;97142.16;4991358;28;20124;-78
2024/03/12 10:10:47;;;;;;;27.73;15.68;;;;;;;12.13;59.62;97153.59;4973162;28;20045;-79
2024/03/12 10:13:17;;;;;;;23.67;14.13;;;;;;;12.05;59.55;97153.31;5000954;28;20092;-78
2024/03/12 10:15:59;;;;;;;26.15;14.18;;;;;;;12.01;59.04;97160.81;4976465;28;20495;-79
2024/03/12 10:18:26;;;;;;;23.83;13.50;;;;;;;11.86;59.80;97156.31;4970373;28;20501;-79
2024/03/12 10:20:54;;;;;;;22.17;13.77;;;;;;;11.78;59.63;97159.38;4991114;28;20029;-80
2024/03/12 10:23:21;;;;;;;21.40;13.10;;;;;;;11.93;59.52;97162.09;4974012;28;20501;-79
2024/03/12 10:25:48;;;;;;;21.08;12.80;;;;;;;11.84;59.68;97168.00;4991955;28;20116;-79
2024/03/12 10:28:15;;;;;;;22.95;13.38;;;;;;;11.78;60.12;97172.41;4975469;28;20047;-79
2024/03/12 10:30:45;;;;;;;22.02;12.48;;;;;;;11.67;60.58;97176.78;4975861;28;20120;-79
2024/03/12 10:33:17;;;;;;;24.27;14.25;;;;;;;11.61;60.37;97180.41;4990687;28;20042;-80
2024/03/12 10:35:44;;;;;;;21.73;12.82;;;;;;;11.47;60.63;97174.81;5010971;28;20034;-79
2024/03/12 10:38:28;;;;;;;23.38;12.82;;;;;;;11.66;59.39;97172.59;4994145;28;20029;-80
2024/03/12 10:40:55;;;;;;;22.50;12.35;;;;;;;11.41;60.31;97170.59;5007063;28;20063;-79
2024/03/12 10:43:24;;;;;;;20.92;11.73;;;;;;;11.42;60.40;97161.75;4976371;28;20056;-79
2024/03/12 10:45:50;;;;;;;21.33;12.07;;;;;;;11.49;59.82;97172.75;4996766;28;20034;-83
2024/03/12 10:48:18;;;;;;;20.77;11.50;;;;;;;11.43;60.07;97169.31;4966078;28;20068;-83
2024/03/12 10:50:44;;;;;;;23.63;13.02;;;;;;;11.37;60.00;97170.31;4975393;28;20405;-83
2024/03/12 10:53:13;;;;;;;23.75;12.38;;;;;;;11.49;60.40;97169.38;4992262;28;20034;-84
2024/03/12 10:55:40;;;;;;;24.35;13.73;;;;;;;11.48;60.33;97171.19;4979076;28;20120;-83
2024/03/12 10:58:08;;;;;;;23.52;13.52;;;;;;;11.50;59.36;97169.13;5000116;28;20038;-83
2024/03/12 11:00:35;;;;;;;25.15;13.13;;;;;;;11.42;59.77;97183.38;4991350;28;20478;-83
2024/03/12 11:03:01;;;;;;;23.20;12.82;;;;;;;11.44;59.21;97180.53;4988045;28;20033;-84
2024/03/12 11:05:27;;;;;;;24.02;13.80;;;;;;;11.53;59.09;97180.84;5010808;28;20328;-83
2024/03/12 11:07:57;;;;;;;22.50;12.77;;;;;;;11.61;58.77;97175.19;4996684;28;20125;-83
2024/03/12 11:10:32;;;;;;;25.55;13.40;;;;;;;11.66;59.27;97164.78;4999224;28;20042;-83
2024/03/12 11:13:02;;;;;;;21.55;12.15;;;;;;;11.64;59.25;97173.91;4963394;28;20562;-84
2024/03/12 11:15:27;;;;;;;22.42;12.88;;;;;;;11.54;60.76;97170.19;4986563;28;20065;-83
2024/03/12 11:17:53;;;;;;;24.67;14.02;;;;;;;11.62;60.11;97168.94;5003524;28;20044;-83
2024/03/12 11:20:22;;;;;;;24.75;13.73;;;;;;;11.74;60.46;97176.59;5009339;28;20397;-83
2024/03/12 11:22:52;;;;;;;23.75;13.18;;;;;;;11.79;60.50;97179.22;4994393;28;20030;-83
2024/03/12 11:25:27;;;;;;;26.40;14.05;;;;;;;12.04;60.01;97183.81;4993910;28;20034;-83
2024/03/12 11:28:15;;;;;;;21.60;13.70;;;;;;;12.16;59.61;97187.00;4986490;28;20547;-83